KTLH/TLH METAR and TAF weather

Enter ICAO airport designator
Station Type Date Time Source
KTLH METAR 2019/12/08 00:53 UTC NOAA

KTLH 080053Z 00000KT 10SM OVC028 18/09 A3019 RMK AO2 SLP223 T01780094


Station Type Date Time Source
KTLH Decoded METAR 2019/12/08 00:53 UTC NOAA

TALLAHASSEE REGIONAL AIRPORT , FL, United States (KTLH) 30-24N 84-21W 16M
Dec 07, 2019 - 07:53 PM EST / 2019.12.08 0053 UTC
Wind: Calm:0
Visibility: 10 mile(s):0
Sky conditions: overcast
Temperature: 64.0 F (17.8 C)
Dew Point: 48.9 F (9.4 C)
Relative Humidity: 57%
Pressure (altimeter): 30.19 in. Hg (1022 hPa)
ob: KTLH 080053Z 00000KT 10SM OVC028 18/09 A3019 RMK AO2 SLP223 T01780094
cycle: 1

Station Type Date Time Source
KTLH TAF 2019/12/07 18:42 UTC NOAA

KTLH 071738Z 0718/0818 09006KT P6SM OVC020
TEMPO 0718/0722 SCT020 OVC050
FM081600 11009KT P6SM BKN050

Example: see airport list